Time;durP1;ratioP1;P1;durP2;ratioP2;P2;SDS_P1;SDS_P2;PMS_P1;PMS_P2;Temp;Humidity;BMP_temperature;BMP_pressure;BME280_temperature;BME280_humidity;BME280_pressure;Samples;Min_cycle;Max_cycle;Signal;HPM_P1;HPM_P2
2022/06/22 00:01:19;;;;;;;9.10;4.25;;;19.30;63.90;;;;;;5048957;28;20407;-67
2022/06/22 00:03:53;;;;;;;9.60;4.30;;;19.30;64.10;;;;;;5043751;28;20028;-68
2022/06/22 00:06:30;;;;;;;8.00;4.25;;;19.30;64.20;;;;;;5049593;28;20029;-68
2022/06/22 00:08:56;;;;;;;7.95;4.10;;;19.20;64.30;;;;;;5045844;28;20112;-68
2022/06/22 00:11:23;;;;;;;7.53;4.03;;;19.20;64.30;;;;;;5037293;28;20113;-68
2022/06/22 00:13:56;;;;;;;8.15;4.47;;;19.20;64.50;;;;;;5043061;28;20033;-68
2022/06/22 00:16:39;;;;;;;8.45;4.47;;;19.10;64.60;;;;;;5050112;28;20033;-68
2022/06/22 00:19:18;;;;;;;6.68;4.07;;;19.10;64.60;;;;;;5049021;28;20053;-68
2022/06/22 00:21:44;;;;;;;9.52;4.13;;;19.00;64.70;;;;;;5053613;28;20033;-68
2022/06/22 00:24:21;;;;;;;9.57;4.53;;;19.00;64.80;;;;;;5036085;28;20373;-67
2022/06/22 00:27:06;;;;;;;8.10;3.85;;;19.00;65.00;;;;;;5049514;28;20485;-67
2022/06/22 00:29:34;;;;;;;7.38;4.35;;;18.90;65.10;;;;;;5019333;28;20037;-67
2022/06/22 00:32:23;;;;;;;7.30;4.40;;;18.90;65.20;;;;;;5024480;28;20026;-67
2022/06/22 00:34:49;;;;;;;8.90;4.07;;;18.90;65.30;;;;;;5046329;28;20048;-67
2022/06/22 00:37:25;;;;;;;9.00;4.13;;;18.80;65.30;;;;;;5048243;28;20033;-67
2022/06/22 00:39:54;;;;;;;8.77;4.30;;;18.80;65.40;;;;;;5040993;28;20033;-67
2022/06/22 00:42:31;;;;;;;8.65;4.15;;;18.80;66.10;;;;;;5049003;28;20125;-67
2022/06/22 00:45:08;;;;;;;7.55;4.43;;;18.80;65.60;;;;;;5047234;28;20029;-67
2022/06/22 00:47:42;;;;;;;10.30;4.35;;;18.70;65.60;;;;;;5043412;28;20045;-67
2022/06/22 00:50:23;;;;;;;9.88;4.43;;;18.70;65.70;;;;;;5045606;28;20041;-67
2022/06/22 00:53:01;;;;;;;9.93;4.57;;;18.70;65.80;;;;;;5051144;28;20465;-67
2022/06/22 00:55:34;;;;;;;6.95;4.28;;;18.60;65.90;;;;;;5040922;28;20029;-67
2022/06/22 00:58:08;;;;;;;9.05;4.70;;;18.60;66.00;;;;;;5050651;28;20500;-67
2022/06/22 01:00:40;;;;;;;8.68;4.28;;;18.60;66.10;;;;;;5042288;28;20071;-66
2022/06/22 01:03:24;;;;;;;8.75;4.38;;;18.50;66.10;;;;;;5048600;28;20437;-67
2022/06/22 01:06:24;;;;;;;7.30;4.47;;;18.50;66.10;;;;;;5048373;28;20025;-66
2022/06/22 01:08:59;;;;;;;8.27;4.50;;;18.50;66.20;;;;;;5025545;28;20457;-66
2022/06/22 01:14:31;;;;;;;8.75;4.50;;;18.40;66.30;;;;;;5039583;28;20132;-67
2022/06/22 01:16:59;;;;;;;7.95;4.57;;;18.40;66.30;;;;;;5047922;28;20450;-68
2022/06/22 01:19:52;;;;;;;9.93;4.65;;;18.40;66.30;;;;;;5048531;28;20024;-68
2022/06/22 01:22:21;;;;;;;9.48;4.57;;;18.40;66.40;;;;;;5052049;28;20021;-68
2022/06/22 01:25:05;;;;;;;8.32;4.80;;;18.40;66.40;;;;;;5048302;28;20393;-67
2022/06/22 01:27:35;;;;;;;9.23;4.82;;;18.40;66.50;;;;;;5053472;28;20186;-68
2022/06/22 01:30:25;;;;;;;9.00;4.30;;;18.40;66.50;;;;;;5046879;28;20029;-68
2022/06/22 01:32:51;;;;;;;10.43;4.82;;;18.40;66.50;;;;;;5032541;28;20096;-68
2022/06/22 01:35:31;;;;;;;8.07;4.75;;;18.40;66.60;;;;;;5028037;28;20052;-67
2022/06/22 01:37:58;;;;;;;11.20;4.93;;;18.40;66.60;;;;;;5043768;28;20116;-68
2022/06/22 01:40:33;;;;;;;9.98;4.47;;;18.30;66.60;;;;;;5035163;28;20291;-68
2022/06/22 01:43:15;;;;;;;10.68;4.85;;;18.30;66.60;;;;;;5036424;28;20040;-66
2022/06/22 01:46:10;;;;;;;8.55;4.50;;;18.40;66.70;;;;;;5033690;28;20029;-66
2022/06/22 01:48:54;;;;;;;7.80;4.85;;;18.30;66.70;;;;;;5047118;28;20022;-66
2022/06/22 01:51:37;;;;;;;9.93;4.68;;;18.30;66.70;;;;;;5039611;28;20402;-66
2022/06/22 01:54:16;;;;;;;9.20;4.35;;;18.30;66.80;;;;;;5047144;28;20034;-66
2022/06/22 01:57:06;;;;;;;10.75;4.70;;;18.30;66.80;;;;;;5046239;28;20476;-66
2022/06/22 01:59:47;;;;;;;11.00;5.43;;;18.20;66.80;;;;;;5027196;28;20458;-66
2022/06/22 02:02:30;;;;;;;9.85;5.70;;;18.30;66.90;;;;;;5048375;28;20041;-66
2022/06/22 02:04:58;;;;;;;10.27;5.03;;;18.20;66.80;;;;;;5034644;28;20112;-66
2022/06/22 02:07:44;;;;;;;12.25;5.10;;;18.20;66.90;;;;;;5047239;28;20079;-66
2022/06/22 02:10:23;;;;;;;8.68;5.05;;;18.20;67.00;;;;;;5036184;28;20025;-66
2022/06/22 02:13:08;;;;;;;10.43;5.57;;;18.10;66.90;;;;;;5054962;28;20025;-66
2022/06/22 02:15:41;;;;;;;9.07;4.97;;;18.10;67.00;;;;;;5040416;28;20041;-66
2022/06/22 02:18:16;;;;;;;7.80;4.93;;;18.10;67.10;;;;;;5035104;28;20037;-66
2022/06/22 02:20:42;;;;;;;9.45;5.82;;;18.10;67.10;;;;;;5033227;28;20037;-66
2022/06/22 02:23:17;;;;;;;9.15;5.28;;;18.10;67.10;;;;;;5039369;28;20044;-66
2022/06/22 02:26:01;;;;;;;8.95;5.30;;;18.10;67.20;;;;;;5037257;28;20039;-66
2022/06/22 02:28:27;;;;;;;11.27;5.18;;;18.10;67.30;;;;;;5035242;28;20037;-66
2022/06/22 02:30:53;;;;;;;9.50;5.53;;;18.00;67.20;;;;;;5052585;28;20028;-66
2022/06/22 02:33:19;;;;;;;8.68;5.57;;;18.00;67.30;;;;;;5040522;28;20028;-66
2022/06/22 02:35:46;;;;;;;10.70;5.80;;;18.00;67.30;;;;;;5042445;28;20032;-66
2022/06/22 02:38:15;;;;;;;9.15;5.65;;;18.00;67.40;;;;;;5047311;28;20044;-66
2022/06/22 02:46:18;;;;;;;9.82;5.97;;;18.00;67.40;;;;;;5038880;28;20462;-66
2022/06/22 02:48:48;;;;;;;9.90;6.05;;;17.90;67.40;;;;;;5049177;28;20442;-65
2022/06/22 02:51:24;;;;;;;10.43;5.53;;;17.90;67.50;;;;;;5042236;28;20116;-68
2022/06/22 02:53:52;;;;;;;10.00;5.85;;;17.90;67.50;;;;;;5051277;28;20319;-69
2022/06/22 02:56:22;;;;;;;10.93;5.80;;;17.90;67.50;;;;;;5029150;28;20472;-69
2022/06/22 02:58:49;;;;;;;12.52;6.43;;;17.90;67.60;;;;;;5035443;28;20593;-66
2022/06/22 03:01:21;;;;;;;9.38;5.93;;;17.90;67.50;;;;;;5042634;28;20382;-66
2022/06/22 03:04:07;;;;;;;8.48;5.55;;;17.90;67.60;;;;;;5020848;28;20028;-66
2022/06/22 03:06:37;;;;;;;9.50;5.53;;;17.90;67.60;;;;;;5034171;28;20068;-66
2022/06/22 03:09:06;;;;;;;9.27;6.03;;;17.80;67.60;;;;;;5051898;28;20025;-66
2022/06/22 03:11:38;;;;;;;10.57;6.35;;;17.80;67.70;;;;;;5039491;28;20040;-67
2022/06/22 03:14:24;;;;;;;10.48;5.30;;;17.80;67.80;;;;;;5042456;28;20037;-68
2022/06/22 03:17:05;;;;;;;9.52;5.18;;;17.80;67.80;;;;;;5042836;28;20071;-68
2022/06/22 03:19:43;;;;;;;9.82;5.32;;;17.80;67.90;;;;;;5042797;28;20036;-68
2022/06/22 03:22:29;;;;;;;12.70;5.68;;;17.70;67.70;;;;;;5024571;28;20061;-68
2022/06/22 03:25:24;;;;;;;10.20;5.93;;;17.70;67.70;;;;;;5041854;28;20052;-68
2022/06/22 03:27:59;;;;;;;10.82;5.85;;;17.70;67.80;;;;;;5045361;28;20087;-70
2022/06/22 03:30:47;;;;;;;11.48;6.28;;;17.70;67.80;;;;;;5049296;28;20034;-69
2022/06/22 03:33:28;;;;;;;10.23;5.30;;;17.70;67.80;;;;;;5042559;28;20029;-68
2022/06/22 03:35:59;;;;;;;10.05;5.65;;;17.70;67.80;;;;;;5044191;28;20017;-69
2022/06/22 03:38:31;;;;;;;10.50;5.90;;;17.70;67.80;;;;;;5052620;28;20136;-69
2022/06/22 03:41:02;;;;;;;9.23;5.78;;;17.70;67.80;;;;;;5042963;28;20121;-68
2022/06/22 03:43:33;;;;;;;10.55;5.78;;;17.70;67.80;;;;;;5055348;28;20025;-68
2022/06/22 03:46:16;;;;;;;;;;;17.70;67.70;;;;;;5053962;28;20094;-68
2022/06/22 03:48:57;;;;;;;10.70;4.85;;;17.60;67.60;;;;;;5053050;28;20254;-68
2022/06/22 03:51:30;;;;;;;11.52;5.22;;;17.60;67.60;;;;;;5054482;28;20029;-69
2022/06/22 03:54:08;;;;;;;9.85;5.72;;;17.60;67.60;;;;;;5012987;28;20534;-66
2022/06/22 03:56:38;;;;;;;10.77;5.28;;;17.60;67.60;;;;;;5049025;28;20108;-66
2022/06/22 03:59:05;;;;;;;9.45;5.53;;;17.60;67.70;;;;;;5041387;28;20044;-66
2022/06/22 04:01:31;;;;;;;9.68;5.60;;;17.60;67.70;;;;;;5050683;28;20024;-66
2022/06/22 04:03:58;;;;;;;9.48;5.18;;;17.60;67.80;;;;;;5054835;28;20028;-65
2022/06/22 04:06:42;;;;;;;10.75;6.20;;;17.60;67.80;;;;;;5052418;28;20358;-66
2022/06/22 04:09:17;;;;;;;9.23;5.70;;;17.60;67.90;;;;;;5043060;28;20029;-66
2022/06/22 04:11:53;;;;;;;10.27;5.82;;;17.60;67.90;;;;;;5044595;28;20021;-66
2022/06/22 04:14:24;;;;;;;9.77;5.97;;;17.60;67.90;;;;;;5052217;28;20462;-66
2022/06/22 04:16:58;;;;;;;10.45;6.00;;;17.60;67.90;;;;;;5044609;28;20060;-65
2022/06/22 04:19:39;;;;;;;10.98;5.53;;;17.60;68.00;;;;;;5042669;28;20098;-66
2022/06/22 04:22:14;;;;;;;9.25;5.53;;;17.60;68.00;;;;;;5042378;28;20033;-65
2022/06/22 04:25:00;;;;;;;9.20;5.60;;;17.60;67.90;;;;;;5043247;28;20036;-65
2022/06/22 04:27:32;;;;;;;9.32;5.65;;;17.60;67.90;;;;;;5050013;28;20461;-66
2022/06/22 04:30:13;;;;;;;9.63;5.78;;;17.60;67.80;;;;;;5050643;28;20029;-66
2022/06/22 04:33:01;;;;;;;8.13;5.53;;;17.60;67.80;;;;;;5042926;28;20036;-66
2022/06/22 04:35:42;;;;;;;11.68;5.43;;;17.60;67.80;;;;;;5043424;28;20086;-66
2022/06/22 04:38:08;;;;;;;;;;;17.60;67.80;;;;;;5049751;28;20129;-66
2022/06/22 04:41:04;;;;;;;9.50;5.38;;;17.60;67.60;;;;;;5052598;28;20325;-66
2022/06/22 04:43:32;;;;;;;9.07;5.53;;;17.60;67.60;;;;;;5033696;28;20041;-66
2022/06/22 04:45:57;;;;;;;10.57;5.60;;;17.60;67.50;;;;;;5051658;28;20103;-66
2022/06/22 04:48:26;;;;;;;9.88;5.75;;;17.70;67.50;;;;;;5053783;28;20029;-66
2022/06/22 04:50:57;;;;;;;9.98;5.35;;;17.70;67.50;;;;;;5055225;28;20402;-66
2022/06/22 04:53:43;;;;;;;8.45;5.38;;;17.70;67.40;;;;;;5047832;28;20413;-66
2022/06/22 04:56:16;;;;;;;8.63;5.68;;;17.80;68.00;;;;;;5051363;28;20048;-66
2022/06/22 04:58:54;;;;;;;9.60;5.43;;;17.80;67.30;;;;;;5046797;28;20115;-66
2022/06/22 05:01:26;;;;;;;10.15;5.53;;;17.90;67.40;;;;;;5056078;28;20102;-66
2022/06/22 05:04:00;;;;;;;8.80;5.15;;;17.90;67.40;;;;;;5042582;28;20033;-66
2022/06/22 05:07:09;;;;;;;9.45;5.57;;;17.90;67.40;;;;;;5022875;28;20041;-66
2022/06/22 05:09:41;;;;;;;8.27;5.43;;;18.00;67.30;;;;;;5005481;28;20046;-66
2022/06/22 05:12:14;;;;;;;9.27;5.22;;;18.20;67.10;;;;;;4993318;28;20542;-66
2022/06/22 05:14:41;;;;;;;9.02;5.30;;;19.10;65.60;;;;;;5013249;28;20049;-66
2022/06/22 05:17:28;;;;;;;8.73;4.88;;;19.80;63.90;;;;;;4997963;28;20037;-66
2022/06/22 05:20:16;;;;;;;8.30;4.40;;;20.10;63.20;;;;;;5002282;28;20387;-67
2022/06/22 05:22:41;;;;;;;8.93;3.90;;;20.20;63.00;;;;;;5013176;28;20034;-69
2022/06/22 05:25:11;;;;;;;8.93;4.35;;;20.30;62.90;;;;;;5013316;28;20034;-69
2022/06/22 05:27:50;;;;;;;7.45;4.10;;;20.30;62.50;;;;;;5006348;28;20052;-68
2022/06/22 05:30:16;;;;;;;8.38;4.22;;;20.40;62.30;;;;;;5011624;28;20042;-68
2022/06/22 05:32:50;;;;;;;8.77;4.32;;;20.30;62.20;;;;;;5003312;28;20072;-68
2022/06/22 05:35:28;;;;;;;6.78;4.32;;;20.30;62.00;;;;;;4991578;28;20033;-68
2022/06/22 05:37:56;;;;;;;7.50;4.13;;;20.40;62.00;;;;;;4996898;28;20029;-68
2022/06/22 05:40:25;;;;;;;9.18;4.20;;;20.40;61.90;;;;;;5008575;28;20053;-68
2022/06/22 05:42:52;;;;;;;7.15;4.35;;;20.40;61.60;;;;;;4991894;28;20033;-68
2022/06/22 05:45:27;;;;;;;8.18;4.10;;;20.50;61.40;;;;;;5012276;28;20121;-68
2022/06/22 05:47:55;;;;;;;8.45;4.10;;;20.50;60.90;;;;;;5050789;28;20120;-68
2022/06/22 05:50:40;;;;;;;10.23;4.05;;;20.60;60.80;;;;;;5052948;28;20028;-68
2022/06/22 05:53:29;;;;;;;7.15;4.10;;;20.60;60.80;;;;;;5055560;28;20454;-67
2022/06/22 05:56:02;;;;;;;7.18;3.85;;;20.70;60.60;;;;;;5043221;28;20108;-67
2022/06/22 05:58:37;;;;;;;6.65;3.45;;;20.70;60.30;;;;;;5065549;28;20095;-66
2022/06/22 06:01:11;;;;;;;7.78;4.03;;;20.80;60.10;;;;;;5042313;28;20025;-66
2022/06/22 06:03:48;;;;;;;8.77;4.28;;;20.90;59.80;;;;;;5055244;28;20039;-66
2022/06/22 06:06:20;;;;;;;9.27;4.20;;;21.00;59.70;;;;;;5021686;28;20496;-66
2022/06/22 06:08:58;;;;;;;9.30;4.10;;;21.10;59.70;;;;;;5023970;28;20383;-66
2022/06/22 06:11:28;;;;;;;8.23;4.40;;;21.20;59.30;;;;;;5042579;28;20086;-66
2022/06/22 06:14:01;;;;;;;8.38;3.67;;;21.30;59.10;;;;;;5040257;28;20044;-66
2022/06/22 06:16:48;;;;;;;7.75;4.00;;;21.40;58.80;;;;;;5040788;28;20044;-67
2022/06/22 06:19:19;;;;;;;8.00;3.55;;;21.50;58.60;;;;;;5041215;28;20477;-67
2022/06/22 06:21:45;;;;;;;7.72;3.83;;;21.50;58.50;;;;;;5045915;28;20409;-65
2022/06/22 06:24:16;;;;;;;6.88;3.58;;;21.60;58.30;;;;;;5041621;28;20043;-65
2022/06/22 06:30:26;;;;;;;6.40;3.20;;;21.80;57.60;;;;;;5053816;28;20073;-65
2022/06/22 06:32:59;;;;;;;8.95;3.45;;;22.00;57.20;;;;;;5020925;28;20026;-65
2022/06/22 06:35:39;;;;;;;7.07;3.75;;;22.10;56.90;;;;;;5026599;28;20173;-65
2022/06/22 06:38:21;;;;;;;7.32;3.30;;;22.20;56.50;;;;;;5033412;28;20048;-65
2022/06/22 06:41:04;;;;;;;7.30;3.60;;;22.40;56.30;;;;;;5026732;28;20126;-65
2022/06/22 06:43:48;;;;;;;8.02;3.17;;;22.50;55.80;;;;;;5019198;28;20044;-65
2022/06/22 06:46:26;;;;;;;6.30;3.00;;;22.50;55.40;;;;;;5021448;28;20033;-65
2022/06/22 06:49:01;;;;;;;7.72;3.05;;;22.70;55.20;;;;;;4997374;28;20029;-69
2022/06/22 06:51:30;;;;;;;6.15;2.72;;;22.80;54.90;;;;;;5009007;28;20468;-65
2022/06/22 06:54:15;;;;;;;8.23;2.90;;;23.00;54.60;;;;;;5032047;28;20029;-65
2022/06/22 06:56:54;;;;;;;4.95;2.60;;;23.10;54.30;;;;;;5032472;28;20122;-65
2022/06/22 06:59:25;;;;;;;6.90;2.47;;;23.30;53.70;;;;;;5031682;28;20037;-65
2022/06/22 07:01:51;;;;;;;6.13;2.67;;;23.40;53.50;;;;;;5013781;28;20049;-65
2022/06/22 07:04:30;;;;;;;7.60;2.90;;;23.60;53.10;;;;;;5048276;28;20335;-65
2022/06/22 07:07:11;;;;;;;10.15;3.33;;;23.70;52.40;;;;;;5043376;28;20029;-66
2022/06/22 07:09:38;;;;;;;;;;;23.80;52.00;;;;;;5052032;28;20025;-65
2022/06/22 07:12:30;;;;;;;5.93;2.72;;;23.90;52.30;;;;;;5039894;28;19909;-65
2022/06/22 07:14:59;;;;;;;7.65;3.25;;;24.00;51.90;;;;;;5040168;28;20038;-65
2022/06/22 07:17:25;;;;;;;7.72;2.67;;;24.10;51.70;;;;;;5045544;28;20023;-64
2022/06/22 07:19:59;;;;;;;7.70;2.58;;;24.20;51.30;;;;;;5044485;28;20033;-65
2022/06/22 07:22:32;;;;;;;6.00;2.30;;;24.30;50.90;;;;;;5049367;28;20029;-65
2022/06/22 07:25:13;;;;;;;7.28;2.75;;;24.40;50.70;;;;;;5054031;28;20033;-66
2022/06/22 07:27:38;;;;;;;7.50;2.22;;;24.60;50.40;;;;;;5039379;28;20357;-65
2022/06/22 07:30:20;;;;;;;3.80;1.77;;;24.80;50.20;;;;;;5043503;28;20033;-65
2022/06/22 07:33:01;;;;;;;;;;;24.90;49.70;;;;;;5048799;28;20033;-66
2022/06/22 07:35:52;;;;;;;6.07;2.28;;;25.10;49.90;;;;;;5040590;28;19927;-65
2022/06/22 07:38:26;;;;;;;4.60;1.70;;;25.30;49.80;;;;;;5049526;28;20032;-65
2022/06/22 07:43:38;;;;;;;6.50;1.90;;;25.50;49.30;;;;;;5050925;28;20407;-66
2022/06/22 07:46:06;;;;;;;5.70;2.00;;;25.70;48.90;;;;;;5048840;28;20108;-65
2022/06/22 07:48:37;;;;;;;5.82;1.52;;;25.80;48.00;;;;;;5051089;28;20028;-66
2022/06/22 07:51:07;;;;;;;6.70;2.35;;;25.90;47.70;;;;;;5049283;28;20446;-66
2022/06/22 07:53:46;;;;;;;5.05;1.95;;;26.00;47.50;;;;;;5048865;28;20056;-66
2022/06/22 07:56:54;;;;;;;4.05;1.63;;;26.10;47.00;;;;;;5046312;28;20485;-66
2022/06/22 07:59:32;;;;;;;4.82;2.17;;;26.30;47.00;;;;;;5042140;28;20033;-66
2022/06/22 08:02:02;;;;;;;5.68;1.77;;;26.40;46.60;;;;;;5048264;28;20041;-66
2022/06/22 08:04:42;;;;;;;5.60;1.63;;;26.40;46.40;;;;;;5048362;28;20094;-65
2022/06/22 08:07:16;;;;;;;3.17;1.60;;;26.50;46.00;;;;;;5046138;28;20053;-65
2022/06/22 08:09:48;;;;;;;5.68;1.77;;;26.60;45.60;;;;;;5046969;28;20143;-66
2022/06/22 08:12:19;;;;;;;5.53;2.08;;;26.70;45.20;;;;;;5052868;28;20033;-66
2022/06/22 08:14:48;;;;;;;3.97;1.58;;;26.80;45.30;;;;;;5035020;28;20038;-65
2022/06/22 08:17:44;;;;;;;3.05;1.42;;;26.80;44.90;;;;;;5028005;28;20048;-65
2022/06/22 08:20:14;;;;;;;5.68;1.73;;;26.90;44.40;;;;;;5035819;28;20037;-65
2022/06/22 08:22:45;;;;;;;4.95;1.58;;;27.00;44.30;;;;;;5035205;28;20017;-65
2022/06/22 08:25:13;;;;;;;4.55;1.58;;;27.20;44.00;;;;;;5031305;28;20120;-65
2022/06/22 08:27:40;;;;;;;4.45;1.55;;;27.20;43.70;;;;;;5050190;28;20116;-65
2022/06/22 08:30:07;;;;;;;4.07;1.58;;;27.30;43.40;;;;;;5034985;28;20042;-65
2022/06/22 08:32:45;;;;;;;4.57;1.40;;;27.40;43.10;;;;;;5049378;28;20029;-65
2022/06/22 08:35:51;;;;;;;4.07;1.60;;;27.40;42.70;;;;;;5042007;28;20350;-67
2022/06/22 08:38:22;;;;;;;4.30;1.77;;;27.50;42.20;;;;;;5038927;28;20038;-66
2022/06/22 08:41:06;;;;;;;4.15;1.38;;;27.50;41.80;;;;;;5043182;28;20040;-65
2022/06/22 08:44:07;;;;;;;4.15;1.60;;;27.60;41.90;;;;;;5044996;28;20375;-64
2022/06/22 08:46:57;;;;;;;3.67;1.40;;;27.80;41.30;;;;;;5041652;28;20394;-65
2022/06/22 08:49:26;;;;;;;6.22;1.70;;;27.90;41.20;;;;;;5035471;28;20022;-64
2022/06/22 08:52:05;;;;;;;3.88;1.58;;;27.90;41.20;;;;;;5039484;28;20014;-65
2022/06/22 08:54:52;;;;;;;4.47;1.50;;;28.00;40.80;;;;;;5040662;28;20029;-64
2022/06/22 08:57:20;;;;;;;5.57;1.80;;;28.10;40.60;;;;;;5038490;28;20037;-64
2022/06/22 09:00:12;;;;;;;3.03;1.30;;;28.20;40.30;;;;;;5039078;28;20336;-64
2022/06/22 09:02:54;;;;;;;1.85;1.10;;;28.30;39.70;;;;;;5040530;28;20459;-64
2022/06/22 09:05:31;;;;;;;2.95;1.25;;;28.40;39.50;;;;;;5041259;28;20116;-64
2022/06/22 09:08:11;;;;;;;4.03;1.30;;;28.50;39.60;;;;;;5043438;28;20048;-64
2022/06/22 09:11:02;;;;;;;6.35;1.30;;;28.60;39.10;;;;;;5025651;28;21380;-64
2022/06/22 09:13:52;;;;;;;3.50;1.40;;;28.60;38.60;;;;;;5045532;28;20446;-65
2022/06/22 09:16:24;;;;;;;3.03;1.42;;;28.70;38.80;;;;;;5051344;28;20182;-65
2022/06/22 09:19:02;;;;;;;3.70;1.20;;;28.70;38.70;;;;;;5048432;28;20362;-65
2022/06/22 09:21:28;;;;;;;3.58;1.40;;;28.80;38.70;;;;;;5054693;28;20036;-65
2022/06/22 09:24:17;;;;;;;2.38;1.20;;;28.90;38.20;;;;;;5054637;28;20454;-64
2022/06/22 09:27:08;;;;;;;3.65;1.60;;;29.00;38.10;;;;;;5056433;28;20041;-65
2022/06/22 09:30:05;;;;;;;3.33;1.50;;;29.00;37.30;;;;;;5045590;28;20044;-65
2022/06/22 09:33:00;;;;;;;3.05;1.30;;;29.00;37.30;;;;;;5053252;28;20052;-65
2022/06/22 09:35:35;;;;;;;3.17;1.45;;;29.20;37.40;;;;;;5049707;28;20021;-65
2022/06/22 09:38:17;;;;;;;2.67;1.25;;;29.30;36.90;;;;;;5053104;28;20060;-65
2022/06/22 09:41:21;;;;;;;3.50;1.38;;;29.30;36.60;;;;;;5051270;28;20018;-64
2022/06/22 09:44:10;;;;;;;3.75;1.20;;;29.30;36.30;;;;;;5040672;28;20061;-64
2022/06/22 09:47:00;;;;;;;2.03;1.08;;;29.40;36.00;;;;;;5043088;28;20523;-65
2022/06/22 09:50:07;;;;;;;2.13;1.03;;;29.50;35.90;;;;;;5044549;28;20437;-64
2022/06/22 09:52:47;;;;;;;2.53;1.10;;;29.60;35.80;;;;;;5052129;28;20310;-65
2022/06/22 09:58:27;;;;;;;2.70;1.20;;;29.70;35.70;;;;;;5050374;28;20430;-65
2022/06/22 10:01:07;;;;;;;2.92;1.20;;;29.70;35.00;;;;;;5037239;28;20040;-65
2022/06/22 10:04:00;;;;;;;5.03;1.27;;;29.80;34.90;;;;;;5041117;28;20052;-65
2022/06/22 10:06:34;;;;;;;5.03;1.50;;;29.80;35.10;;;;;;5037835;28;20076;-65
2022/06/22 10:09:14;;;;;;;1.92;1.05;;;29.80;34.80;;;;;;5043407;28;20024;-65
2022/06/22 10:12:09;;;;;;;2.03;0.93;;;29.90;34.70;;;;;;5036971;28;20037;-64
2022/06/22 10:14:55;;;;;;;2.80;1.10;;;29.90;34.40;;;;;;5034042;28;20340;-64
2022/06/22 10:17:47;;;;;;;2.45;0.98;;;30.00;34.50;;;;;;5036054;28;20036;-64
2022/06/22 10:20:31;;;;;;;2.78;1.13;;;30.00;34.30;;;;;;5042483;28;20091;-64
2022/06/22 10:23:40;;;;;;;2.28;1.00;;;30.00;34.30;;;;;;5036396;28;20074;-65
2022/06/22 10:26:35;;;;;;;3.95;1.50;;;30.00;34.30;;;;;;5038924;28;20028;-65
2022/06/22 10:29:30;;;;;;;3.30;1.35;;;30.00;34.20;;;;;;5036781;28;20037;-65
2022/06/22 10:32:25;;;;;;;1.65;0.93;;;30.00;34.30;;;;;;5034458;28;20038;-65
2022/06/22 10:34:55;;;;;;;3.30;1.30;;;30.10;34.40;;;;;;5035409;28;20044;-65
2022/06/22 10:37:53;;;;;;;5.00;1.30;;;30.10;34.30;;;;;;5033380;28;20035;-64
2022/06/22 10:46:30;;;;;;;3.80;1.60;;;30.20;34.20;;;;;;5041487;28;20037;-65
2022/06/22 10:49:09;;;;;;;3.42;1.35;;;30.10;33.70;;;;;;5043443;28;20025;-66
2022/06/22 10:51:54;;;;;;;3.97;1.48;;;30.10;34.20;;;;;;5037833;28;20339;-65
2022/06/22 10:54:43;;;;;;;3.83;1.67;;;30.10;34.40;;;;;;5033047;28;20466;-65
2022/06/22 10:57:14;;;;;;;3.47;1.20;;;30.20;34.40;;;;;;5039345;28;20044;-64
2022/06/22 11:00:03;;;;;;;;;;;30.30;34.70;;;;;;5035210;28;20033;-65
2022/06/22 11:03:21;;;;;;;4.10;1.58;;;30.40;34.90;;;;;;5037629;28;19948;-66
2022/06/22 11:05:53;;;;;;;2.53;1.20;;;30.40;34.60;;;;;;4998133;28;20360;-65
2022/06/22 11:08:54;;;;;;;4.38;1.30;;;30.40;34.50;;;;;;4994760;28;20121;-66
2022/06/22 11:12:04;;;;;;;3.70;1.20;;;30.40;34.60;;;;;;4918719;29;20036;-65
2022/06/22 11:14:54;;;;;;;4.60;1.50;;;30.40;34.50;;;;;;4924784;29;20044;-65
2022/06/22 11:17:25;;;;;;;4.25;1.35;;;30.40;34.10;;;;;;4917279;29;20153;-66
2022/06/22 11:20:26;;;;;;;4.25;1.30;;;30.40;33.70;;;;;;4913504;29;20370;-66
2022/06/22 11:22:54;;;;;;;5.57;1.90;;;30.40;33.20;;;;;;4916909;29;20036;-65
2022/06/22 11:31:59;;;;;;;3.50;1.30;;;30.40;33.60;;;;;;4920267;29;20466;-65
2022/06/22 11:34:33;;;;;;;3.67;1.30;;;30.40;33.70;;;;;;4914205;29;20051;-64
2022/06/22 11:37:13;;;;;;;3.50;1.30;;;30.40;33.30;;;;;;4898865;29;20134;-67
2022/06/22 11:39:53;;;;;;;2.30;1.20;;;30.30;32.70;;;;;;4916474;29;20126;-65
2022/06/22 11:42:19;;;;;;;2.20;1.20;;;30.30;32.50;;;;;;4949970;28;20173;-67
2022/06/22 11:48:14;;;;;;;2.35;1.17;;;30.30;32.60;;;;;;5007636;28;20462;-66
2022/06/22 11:51:34;;;;;;;3.13;1.33;;;30.20;32.90;;;;;;5039890;28;20060;-66
2022/06/22 11:54:08;;;;;;;2.83;1.10;;;30.20;32.90;;;;;;5033877;28;20079;-66
2022/06/22 11:56:56;;;;;;;3.95;1.20;;;30.10;33.20;;;;;;5037533;28;20044;-66
2022/06/22 11:59:32;;;;;;;4.13;1.20;;;30.10;33.20;;;;;;5026971;28;20033;-66
2022/06/22 12:02:17;;;;;;;3.97;1.20;;;30.10;33.40;;;;;;5038454;28;20141;-68
2022/06/22 12:05:09;;;;;;;4.90;1.40;;;30.00;33.30;;;;;;5040274;28;20032;-64
2022/06/22 12:07:38;;;;;;;2.15;1.10;;;29.90;33.20;;;;;;5031689;28;20083;-64
2022/06/22 12:10:35;;;;;;;3.55;1.20;;;29.90;33.40;;;;;;5036495;28;20025;-62
2022/06/22 12:13:22;;;;;;;3.25;1.35;;;29.80;33.60;;;;;;5044985;28;20032;-62
2022/06/22 12:16:06;;;;;;;3.75;1.45;;;29.80;33.70;;;;;;5055321;28;20405;-61
2022/06/22 12:18:44;;;;;;;5.35;1.70;;;29.70;33.60;;;;;;5046789;28;20038;-62
2022/06/22 12:21:21;;;;;;;5.60;1.40;;;29.60;33.80;;;;;;5033924;28;20037;-63
2022/06/22 12:24:01;;;;;;;4.03;1.40;;;29.40;34.00;;;;;;5040643;28;20040;-63
2022/06/22 12:26:37;;;;;;;4.03;1.40;;;29.30;34.10;;;;;;5024224;28;20422;-64
2022/06/22 12:29:17;;;;;;;3.80;1.50;;;29.30;34.20;;;;;;5039189;28;20045;-64
2022/06/22 12:31:51;;;;;;;2.67;1.20;;;29.20;34.50;;;;;;5040481;28;20422;-63
2022/06/22 12:34:30;;;;;;;4.50;1.40;;;29.20;34.60;;;;;;5039676;28;20659;-63
2022/06/22 12:37:06;;;;;;;3.72;1.30;;;29.10;34.50;;;;;;5044597;28;20029;-64
2022/06/22 12:39:45;;;;;;;2.38;1.35;;;29.00;34.60;;;;;;5035398;28;20405;-63
2022/06/22 12:42:35;;;;;;;2.45;1.10;;;28.90;34.20;;;;;;5041279;28;20385;-63
2022/06/22 12:45:34;;;;;;;3.75;1.50;;;28.80;34.30;;;;;;5042049;28;20442;-62
2022/06/22 12:48:25;;;;;;;3.13;1.20;;;28.80;34.40;;;;;;5041076;28;20084;-64
2022/06/22 12:51:18;;;;;;;2.72;1.27;;;28.60;34.50;;;;;;5041457;28;20040;-62
2022/06/22 12:54:07;;;;;;;3.17;1.35;;;28.60;34.70;;;;;;5038869;28;20038;-62
2022/06/22 12:56:39;;;;;;;3.10;1.38;;;28.60;34.70;;;;;;5038365;28;20036;-62
2022/06/22 12:59:13;;;;;;;3.03;1.40;;;28.50;34.40;;;;;;5043671;28;20056;-62
2022/06/22 13:01:39;;;;;;;3.13;1.25;;;28.40;34.30;;;;;;5036757;28;20037;-64
2022/06/22 13:04:09;;;;;;;2.97;1.40;;;28.20;34.40;;;;;;5037820;28;20068;-63
2022/06/22 13:06:41;;;;;;;4.03;1.40;;;28.10;34.30;;;;;;5044740;28;20424;-63
2022/06/22 13:09:08;;;;;;;6.18;1.67;;;28.10;34.70;;;;;;5048132;28;20035;-63
2022/06/22 13:11:36;;;;;;;5.18;1.38;;;28.00;34.50;;;;;;5037609;28;20037;-62
2022/06/22 13:14:21;;;;;;;6.78;1.42;;;27.90;34.40;;;;;;5041076;28;20033;-62
2022/06/22 13:17:23;;;;;;;5.72;1.42;;;27.90;34.60;;;;;;5044795;28;20041;-62
2022/06/22 13:19:57;;;;;;;3.80;1.48;;;27.90;34.70;;;;;;5038568;28;20060;-62
2022/06/22 13:22:37;;;;;;;5.28;1.38;;;27.90;34.60;;;;;;5041382;28;20456;-65
2022/06/22 13:25:40;;;;;;;3.25;1.10;;;27.90;34.50;;;;;;5045358;28;20029;-68
2022/06/22 13:28:27;;;;;;;3.88;1.23;;;27.80;34.40;;;;;;5032545;28;20041;-69
2022/06/22 13:30:58;;;;;;;5.10;1.40;;;27.70;34.20;;;;;;5038862;28;20029;-69
2022/06/22 13:33:28;;;;;;;;;;;27.60;34.20;;;;;;5054935;28;20396;-61
2022/06/22 13:36:03;;;;;;;3.90;1.23;;;27.60;34.50;;;;;;5041390;28;19908;-62
2022/06/22 13:38:29;;;;;;;1.98;1.02;;;27.50;34.10;;;;;;5046575;28;20041;-64
2022/06/22 13:41:25;;;;;;;3.15;1.17;;;27.50;34.10;;;;;;5046045;28;20339;-64
2022/06/22 13:44:03;;;;;;;4.78;1.83;;;27.40;33.90;;;;;;5046223;28;20029;-64
2022/06/22 13:46:49;;;;;;;3.65;1.20;;;27.40;33.60;;;;;;5043802;28;20050;-64
2022/06/22 13:49:25;;;;;;;4.05;1.10;;;27.30;33.40;;;;;;5041896;28;20029;-64
2022/06/22 13:52:05;;;;;;;5.35;1.30;;;27.30;33.40;;;;;;5036783;28;20053;-64
2022/06/22 13:54:42;;;;;;;3.53;1.10;;;27.20;33.90;;;;;;5046776;28;20040;-64
2022/06/22 13:57:23;;;;;;;2.65;1.30;;;27.10;34.20;;;;;;5047305;28;20075;-63
2022/06/22 13:59:51;;;;;;;;;;;27.20;34.40;;;;;;5054970;28;20053;-65
2022/06/22 14:02:39;;;;;;;2.45;1.10;;;27.20;34.60;;;;;;5051254;28;20007;-66
2022/06/22 14:05:10;;;;;;;2.78;1.20;;;27.10;34.80;;;;;;5051214;28;20048;-65
2022/06/22 14:07:53;;;;;;;3.78;1.27;;;27.10;34.60;;;;;;5041485;28;20074;-65
2022/06/22 14:10:34;;;;;;;4.03;1.35;;;27.10;34.50;;;;;;5042512;28;20036;-64
2022/06/22 14:13:27;;;;;;;3.55;1.50;;;27.00;34.30;;;;;;5044657;28;20087;-65
2022/06/22 14:16:11;;;;;;;3.25;1.30;;;27.00;34.40;;;;;;5049584;28;20127;-65
2022/06/22 14:19:12;;;;;;;2.97;1.30;;;26.90;34.60;;;;;;5047838;28;20144;-64
2022/06/22 14:21:55;;;;;;;3.30;1.40;;;26.90;34.70;;;;;;5051105;28;20093;-65